createdAt,value
2018-12-21T00:00:58.057Z,100897.52
2018-12-21T00:03:25.632Z,100902.92
2018-12-21T00:05:53.242Z,100900.73
2018-12-21T00:08:20.821Z,100888.23
2018-12-21T00:10:48.422Z,100896.35
2018-12-21T00:13:16.001Z,100894.16
2018-12-21T00:15:43.596Z,100890.94
2018-12-21T00:18:11.169Z,100883.66
2018-12-21T00:20:38.770Z,100885.34
2018-12-21T00:23:06.348Z,100887.22
2018-12-21T00:25:33.961Z,100880.78
2018-12-21T00:28:01.532Z,100885.35
2018-12-21T00:30:28.594Z,100881.81
2018-12-21T00:33:01.973Z,100886.89
2018-12-21T00:35:34.964Z,100883.84
2018-12-21T00:38:08.131Z,100881.78
2018-12-21T00:40:41.424Z,100879.02
2018-12-21T00:43:15.910Z,100876.62
2018-12-21T00:45:45.472Z,100879.67
2018-12-21T00:48:13.078Z,100875.45
2018-12-21T00:50:40.656Z,100870.73
2018-12-21T00:53:08.255Z,100869.91
2018-12-21T00:55:35.832Z,100866.84
2018-12-21T00:58:03.497Z,100863.67
2018-12-21T01:00:31.077Z,100863.50
2018-12-21T01:02:58.678Z,100867.55
2018-12-21T01:05:26.329Z,100867.87
2018-12-21T01:07:53.940Z,100872.44
2018-12-21T01:10:21.512Z,100870.23
2018-12-21T01:12:49.120Z,100863.47
2018-12-21T01:15:16.689Z,100869.38
2018-12-21T01:17:44.287Z,100866.83
2018-12-21T01:20:11.937Z,100867.52
2018-12-21T01:22:39.544Z,100870.73
2018-12-21T01:25:07.124Z,100866.50
2018-12-21T01:27:34.716Z,100869.86
2018-12-21T01:30:02.324Z,100865.47
2018-12-21T01:32:29.942Z,100863.09
2018-12-21T01:34:57.513Z,100863.09
2018-12-21T01:37:25.165Z,100859.55
2018-12-21T01:39:52.769Z,100866.83
2018-12-21T01:42:20.340Z,100870.25
2018-12-21T01:44:47.949Z,100869.23
2018-12-21T01:47:15.543Z,100868.23
2018-12-21T01:49:43.135Z,100865.36
2018-12-21T01:52:10.723Z,100861.81
2018-12-21T01:54:38.332Z,100860.97
2018-12-21T01:57:05.914Z,100852.86
2018-12-21T01:59:55.101Z,100845.27
2018-12-21T02:02:22.758Z,100847.29
2018-12-21T02:04:50.361Z,100838.84
2018-12-21T02:07:17.941Z,100838.52
2018-12-21T02:09:45.540Z,100843.41
2018-12-21T02:12:13.113Z,100840.70
2018-12-21T02:14:40.705Z,100841.22
2018-12-21T02:17:08.287Z,100837.81
2018-12-21T02:19:35.880Z,100832.25
2018-12-21T02:22:05.451Z,100837.49
2018-12-21T02:24:33.051Z,100834.97
2018-12-21T02:27:00.639Z,100831.09
2018-12-21T02:29:28.403Z,100826.02
2018-12-21T02:31:56.080Z,100836.66
2018-12-21T02:34:23.718Z,100827.20
2018-12-21T02:36:51.298Z,100825.19
2018-12-21T02:39:18.896Z,100824.86
2018-12-21T02:41:46.471Z,100832.80
2018-12-21T02:44:14.067Z,100824.53
2018-12-21T02:46:41.643Z,100825.04
2018-12-21T02:49:09.234Z,100824.34
2018-12-21T02:51:36.812Z,100814.88
2018-12-21T02:54:04.486Z,100810.34
2018-12-21T02:56:32.065Z,100817.43
2018-12-21T02:58:59.665Z,100819.11
2018-12-21T03:01:27.243Z,100812.53
2018-12-21T03:03:54.838Z,100812.86
2018-12-21T03:06:22.407Z,100811.51
2018-12-21T03:08:50.042Z,100811.84
2018-12-21T03:11:17.615Z,100819.95
2018-12-21T03:13:45.208Z,100805.92
2018-12-21T03:16:12.774Z,100808.62
2018-12-21T03:18:40.377Z,100804.74
2018-12-21T03:21:07.965Z,100804.74
2018-12-21T03:23:35.582Z,100794.09
2018-12-21T03:26:03.171Z,100791.21
2018-12-21T03:28:30.792Z,100791.54
2018-12-21T03:30:58.367Z,100790.70
2018-12-21T03:33:25.962Z,100790.19
2018-12-21T03:35:53.563Z,100772.78
2018-12-21T03:38:21.165Z,100776.66
2018-12-21T03:40:48.761Z,100776.83
2018-12-21T03:43:16.340Z,100769.37
2018-12-21T03:45:43.938Z,100765.83
2018-12-21T03:48:11.519Z,100769.89
2018-12-21T03:50:39.116Z,100773.11
2018-12-21T03:53:06.686Z,100767.88
2018-12-21T03:55:34.293Z,100764.80
2018-12-21T03:58:01.883Z,100760.75
2018-12-21T04:00:29.489Z,100761.77
2018-12-21T04:02:57.072Z,100754.16
2018-12-21T04:05:24.673Z,100748.23
2018-12-21T04:07:52.246Z,100743.01
2018-12-21T04:10:19.847Z,100745.88
2018-12-21T04:12:47.502Z,100749.09
2018-12-21T04:15:15.333Z,100739.63
2018-12-21T04:17:42.945Z,100741.48
2018-12-21T04:20:10.610Z,100729.64
2018-12-21T04:22:38.185Z,100738.59
2018-12-21T04:25:05.787Z,100724.56
2018-12-21T04:27:33.352Z,100733.17
2018-12-21T04:30:00.941Z,100733.00
2018-12-21T04:32:28.522Z,100729.95
2018-12-21T04:34:56.116Z,100714.55
2018-12-21T04:37:23.681Z,100722.34
2018-12-21T04:39:51.267Z,100711.86
2018-12-21T04:42:18.890Z,100707.98
2018-12-21T04:44:46.460Z,100703.93
2018-12-21T04:47:14.054Z,100704.92
2018-12-21T04:49:41.625Z,100700.55
2018-12-21T04:52:09.228Z,100701.22
2018-12-21T04:54:36.801Z,100702.25
2018-12-21T04:57:04.406Z,100694.80
2018-12-21T04:59:31.992Z,100697.69
2018-12-21T05:01:59.585Z,100700.23
2018-12-21T05:04:27.161Z,100691.77
2018-12-21T05:06:54.754Z,100683.33
2018-12-21T05:09:22.337Z,100684.66
2018-12-21T05:11:49.944Z,100686.70
2018-12-21T05:14:17.521Z,100684.33
2018-12-21T05:16:45.117Z,100673.70
2018-12-21T05:19:12.690Z,100677.39
2018-12-21T05:21:40.288Z,100674.20
2018-12-21T05:24:07.868Z,100667.95
2018-12-21T05:26:35.435Z,100666.75
2018-12-21T05:29:03.030Z,100666.93
2018-12-21T05:31:30.608Z,100654.91
2018-12-21T05:33:58.288Z,100665.76
2018-12-21T05:36:25.872Z,100657.47
2018-12-21T05:38:53.473Z,100654.59
2018-12-21T05:41:21.046Z,100655.10
2018-12-21T05:43:48.651Z,100651.56
2018-12-21T05:46:16.224Z,100646.30
2018-12-21T05:48:43.817Z,100630.59
2018-12-21T05:51:11.392Z,100638.52
2018-12-21T05:53:38.994Z,100630.41
2018-12-21T05:56:06.566Z,100623.48
2018-12-21T05:58:34.170Z,100619.42
2018-12-21T06:01:01.821Z,100612.85
2018-12-21T06:03:29.429Z,100607.45
2018-12-21T06:05:57.002Z,100606.96
2018-12-21T06:08:24.604Z,100608.97
2018-12-21T06:10:52.246Z,100609.81
2018-12-21T06:13:19.849Z,100603.89
2018-12-21T06:15:47.425Z,100608.48
2018-12-21T06:18:15.012Z,100603.73
2018-12-21T06:20:42.612Z,100605.41
2018-12-21T06:23:10.181Z,100599.16
2018-12-21T06:25:37.783Z,100593.23
2018-12-21T06:28:05.360Z,100575.19
2018-12-21T06:30:33.002Z,100572.80
2018-12-21T06:33:00.669Z,100561.64
2018-12-21T06:35:28.265Z,100566.03
2018-12-21T06:37:55.836Z,100558.09
2018-12-21T06:40:23.431Z,100556.55
2018-12-21T06:42:51.007Z,100552.67
2018-12-21T06:45:18.608Z,100551.13
2018-12-21T06:47:46.178Z,100548.59
2018-12-21T06:50:13.777Z,100549.09
2018-12-21T06:52:41.349Z,100549.94
2018-12-21T06:55:08.945Z,100538.28
2018-12-21T06:57:36.522Z,100540.32
2018-12-21T07:00:07.153Z,100544.53
2018-12-21T07:02:34.726Z,100544.19
2018-12-21T07:05:02.326Z,100547.91
2018-12-21T07:07:29.947Z,100540.62
2018-12-21T07:09:57.537Z,100527.10
2018-12-21T07:12:25.116Z,100537.58
2018-12-21T07:14:52.703Z,100525.91
2018-12-21T07:17:20.270Z,100520.81
2018-12-21T07:19:47.866Z,100510.67
2018-12-21T07:22:15.454Z,100510.20
2018-12-21T07:24:43.027Z,100512.89
2018-12-21T07:27:10.625Z,100504.07
2018-12-21T07:29:38.202Z,100499.32
2018-12-21T07:32:05.797Z,100493.59
2018-12-21T07:34:33.367Z,100491.36
2018-12-21T07:37:00.952Z,100486.12
2018-12-21T07:39:28.531Z,100483.73
2018-12-21T07:41:56.135Z,100483.91
2018-12-21T07:44:23.710Z,100475.79
2018-12-21T07:46:51.307Z,100476.98
2018-12-21T07:49:18.880Z,100475.77
2018-12-21T07:51:46.475Z,100479.16
2018-12-21T07:54:14.052Z,100471.52
2018-12-21T07:56:41.645Z,100462.38
2018-12-21T07:59:09.216Z,100460.51
2018-12-21T08:01:36.811Z,100462.54
2018-12-21T08:04:04.388Z,100457.80
2018-12-21T08:06:31.977Z,100449.50
2018-12-21T08:08:59.544Z,100452.84
2018-12-21T08:11:27.129Z,100447.92
2018-12-21T08:13:54.701Z,100435.74
2018-12-21T08:16:22.298Z,100426.75
2018-12-21T08:18:49.869Z,100424.75
2018-12-21T08:21:17.440Z,100426.23
2018-12-21T08:23:45.056Z,100418.47
2018-12-21T08:26:12.623Z,100416.09
2018-12-21T08:28:40.222Z,100411.83
2018-12-21T08:31:07.797Z,100407.93
2018-12-21T08:33:35.406Z,100407.38
2018-12-21T08:36:02.986Z,100409.41
2018-12-21T08:38:30.588Z,100402.80
2018-12-21T08:40:58.230Z,100398.03
2018-12-21T08:43:25.829Z,100397.00
2018-12-21T08:45:53.485Z,100394.13
2018-12-21T08:48:21.234Z,100394.45
2018-12-21T08:50:48.798Z,100391.94
2018-12-21T08:53:16.401Z,100385.64
2018-12-21T08:55:44.043Z,100390.87
2018-12-21T08:58:11.642Z,100399.67
2018-12-21T09:00:39.276Z,100386.97
2018-12-21T09:03:06.869Z,100378.52
2018-12-21T09:05:34.446Z,100374.58
2018-12-21T09:08:02.045Z,100369.88
2018-12-21T09:10:29.616Z,100370.16
2018-12-21T09:12:57.211Z,100364.90
2018-12-21T09:15:24.788Z,100357.93
2018-12-21T09:17:52.380Z,100349.13
2018-12-21T09:20:19.948Z,100352.16
2018-12-21T09:22:47.545Z,100348.56
2018-12-21T09:25:15.109Z,100343.81
2018-12-21T09:27:42.681Z,100331.75
2018-12-21T09:30:11.534Z,100318.87
2018-12-21T09:32:39.113Z,100317.98
2018-12-21T09:35:06.707Z,100318.98
2018-12-21T09:37:34.274Z,100313.36
2018-12-21T09:40:01.878Z,100308.98
2018-12-21T09:42:29.478Z,100300.84
2018-12-21T09:44:57.068Z,100287.63
2018-12-21T09:47:24.638Z,100281.69
2018-12-21T09:49:52.240Z,100273.88
2018-12-21T09:52:19.821Z,100265.38
2018-12-21T09:54:47.420Z,100256.36
2018-12-21T09:57:14.993Z,100246.50
2018-12-21T09:59:42.596Z,100248.98
2018-12-21T10:02:10.169Z,100236.73
2018-12-21T10:04:37.762Z,100223.59
2018-12-21T10:07:05.348Z,100220.50
2018-12-21T10:09:32.937Z,100207.06
2018-12-21T10:12:00.512Z,100201.47
2018-12-21T10:14:28.100Z,100200.34
2018-12-21T10:16:55.682Z,100175.63
2018-12-21T10:19:23.270Z,100179.87
2018-12-21T10:21:50.918Z,100167.30
2018-12-21T10:24:18.875Z,100176.27
2018-12-21T10:26:46.671Z,100159.98
2018-12-21T10:29:14.309Z,100155.74
2018-12-21T10:31:41.907Z,100145.34
2018-12-21T10:34:09.496Z,100142.73
2018-12-21T10:36:37.088Z,100133.50
2018-12-21T10:39:06.316Z,100120.77
2018-12-21T10:41:33.898Z,100127.48
2018-12-21T10:44:01.460Z,100123.62
2018-12-21T10:46:29.066Z,100103.34
2018-12-21T10:48:56.633Z,100109.47
2018-12-21T10:51:24.227Z,100103.98
2018-12-21T10:53:51.788Z,100100.66
2018-12-21T10:56:19.395Z,100087.03
2018-12-21T10:58:47.098Z,100085.53
2018-12-21T11:01:14.684Z,100070.91
2018-12-21T11:03:42.258Z,100061.06
2018-12-21T11:06:09.852Z,100070.69
2018-12-21T11:08:37.419Z,100062.11
2018-12-21T11:11:05.005Z,100056.55
2018-12-21T11:13:32.574Z,100036.22
2018-12-21T11:16:00.177Z,100033.84
2018-12-21T11:18:27.745Z,100029.36
2018-12-21T11:20:55.319Z,100022.78
2018-12-21T11:23:22.912Z,100024.38
2018-12-21T11:25:50.651Z,100005.91
2018-12-21T11:28:25.391Z,100004.03
2018-12-21T11:30:47.936Z,99990.47
2018-12-21T11:33:15.525Z,99994.75
2018-12-21T11:35:43.100Z,99985.27
2018-12-21T11:38:10.702Z,99968.68
2018-12-21T11:40:38.275Z,99968.16
2018-12-21T11:43:05.865Z,99957.83
2018-12-21T11:45:33.436Z,99944.01
2018-12-21T11:48:01.036Z,99947.60
2018-12-21T11:50:28.594Z,99931.15
2018-12-21T11:52:56.187Z,99938.77
2018-12-21T11:55:23.753Z,99930.94
2018-12-21T11:57:51.352Z,99925.42
2018-12-21T12:00:18.985Z,99914.48
2018-12-21T12:02:46.570Z,99907.66
2018-12-21T12:05:14.142Z,99888.72
2018-12-21T12:07:41.869Z,99895.45
2018-12-21T12:10:09.518Z,99895.01
2018-12-21T12:12:39.231Z,99893.22
2018-12-21T12:15:07.381Z,99887.66
2018-12-21T12:17:35.040Z,99880.76
2018-12-21T12:20:02.691Z,99873.02
2018-12-21T12:22:30.261Z,99871.05
2018-12-21T12:24:57.848Z,99874.16
2018-12-21T12:27:25.417Z,99856.92
2018-12-21T12:29:53.008Z,99854.00
2018-12-21T12:32:20.578Z,99840.56
2018-12-21T12:34:48.179Z,99819.27
2018-12-21T12:37:15.758Z,99812.61
2018-12-21T12:39:43.363Z,99801.36
2018-12-21T12:42:10.941Z,99788.52
2018-12-21T12:44:38.526Z,99793.75
2018-12-21T12:47:06.154Z,99791.35
2018-12-21T12:49:33.860Z,99785.83
2018-12-21T12:52:01.571Z,99791.56
2018-12-21T12:54:29.177Z,99787.19
2018-12-21T12:56:56.759Z,99767.75
2018-12-21T12:59:24.368Z,99773.08
2018-12-21T13:01:51.943Z,99763.28
2018-12-21T13:04:19.547Z,99760.45
2018-12-21T13:06:50.268Z,99752.53
2018-12-21T13:09:17.867Z,99742.73
2018-12-21T13:11:45.453Z,99736.13
2018-12-21T13:14:19.713Z,99727.81
2018-12-21T13:16:53.299Z,99725.10
2018-12-21T13:19:24.332Z,99714.02
2018-12-21T13:21:57.899Z,99711.73
2018-12-21T13:24:29.229Z,99698.60
2018-12-21T13:26:59.875Z,99693.82
2018-12-21T13:29:31.125Z,99684.02
2018-12-21T13:32:04.708Z,99670.34
2018-12-21T13:34:38.587Z,99672.65
2018-12-21T13:37:06.175Z,99666.70
2018-12-21T13:39:33.791Z,99660.97
2018-12-21T13:42:01.384Z,99660.63
2018-12-21T13:44:28.993Z,99654.30
2018-12-21T13:46:56.568Z,99649.28
2018-12-21T13:49:24.175Z,99645.73
2018-12-21T13:51:51.877Z,99635.30
2018-12-21T13:54:19.491Z,99627.69
2018-12-21T13:56:47.070Z,99629.54
2018-12-21T13:59:14.689Z,99629.54
2018-12-21T14:01:42.286Z,99620.05
2018-12-21T14:04:09.871Z,99614.20
2018-12-21T14:06:37.468Z,99607.53
2018-12-21T14:09:06.421Z,99607.13
2018-12-21T14:11:34.117Z,99605.46
2018-12-21T14:14:01.705Z,99592.61
2018-12-21T14:16:29.310Z,99602.11
2018-12-21T14:18:56.888Z,99589.91
2018-12-21T14:21:24.495Z,99580.34
2018-12-21T14:23:52.154Z,99590.66
2018-12-21T14:26:19.759Z,99583.20
2018-12-21T14:28:47.358Z,99575.48
2018-12-21T14:31:14.963Z,99571.94
2018-12-21T14:33:42.559Z,99555.38
2018-12-21T14:36:10.163Z,99551.09
2018-12-21T14:38:37.758Z,99558.39
2018-12-21T14:41:05.366Z,99554.23
2018-12-21T14:43:32.952Z,99550.88
2018-12-21T14:46:00.661Z,99543.80
2018-12-21T14:48:28.276Z,99548.89
2018-12-21T14:50:55.879Z,99545.88
2018-12-21T14:53:23.461Z,99546.39
2018-12-21T14:55:51.058Z,99529.30
2018-12-21T14:58:18.649Z,99524.19
2018-12-21T15:00:46.236Z,99516.17
2018-12-21T15:03:13.850Z,99512.00
2018-12-21T15:05:41.439Z,99508.35
2018-12-21T15:08:09.135Z,99503.87
2018-12-21T15:10:36.722Z,99493.77
2018-12-21T15:13:04.404Z,99489.38
2018-12-21T15:15:31.992Z,99486.36
2018-12-21T15:17:59.608Z,99480.41
2018-12-21T15:20:27.187Z,99480.63
2018-12-21T15:22:54.802Z,99478.01
2018-12-21T15:25:22.400Z,99474.47
2018-12-21T15:27:56.490Z,99455.84
2018-12-21T15:30:24.129Z,99450.83
2018-12-21T15:32:57.467Z,99444.13
2018-12-21T15:35:31.467Z,99432.16
2018-12-21T15:38:02.399Z,99430.91
2018-12-21T15:40:35.901Z,99449.47
2018-12-21T15:43:07.135Z,99445.71
2018-12-21T15:45:40.870Z,99444.88
2018-12-21T15:48:14.612Z,99429.15
2018-12-21T15:50:45.849Z,99424.56
2018-12-21T15:53:16.596Z,99427.80
2018-12-21T15:55:54.759Z,99424.45
2018-12-21T15:58:23.731Z,99419.85
2018-12-21T16:00:57.398Z,99421.20
2018-12-21T16:03:28.328Z,99417.97
2018-12-21T16:06:02.008Z,99404.34
2018-12-21T16:08:29.618Z,99397.98
2018-12-21T16:11:03.616Z,99394.22
2018-12-21T16:13:37.366Z,99388.80
2018-12-21T16:16:11.032Z,99374.42
2018-12-21T16:18:38.632Z,99378.27
2018-12-21T16:21:12.004Z,99373.38
2018-12-21T16:23:39.607Z,99370.66
2018-12-21T16:26:07.207Z,99355.34
2018-12-21T16:28:34.815Z,99352.00
2018-12-21T16:31:02.393Z,99351.50
2018-12-21T16:33:29.971Z,99351.50
2018-12-21T16:35:57.571Z,99346.08
2018-12-21T16:38:31.120Z,99334.19
2018-12-21T16:43:54.721Z,99304.80
2018-12-21T16:46:22.304Z,99309.91
2018-12-21T16:48:49.911Z,99329.08
2018-12-21T16:51:17.490Z,99328.24
2018-12-21T16:53:45.088Z,99311.69
2018-12-21T16:56:12.812Z,99298.31
2018-12-21T16:58:40.492Z,99284.77
2018-12-21T17:01:08.100Z,99278.92
2018-12-21T17:03:35.681Z,99314.16
2018-12-21T17:06:03.297Z,99338.85
2018-12-21T17:08:30.886Z,99318.52
2018-12-21T17:10:58.485Z,99303.14
2018-12-21T17:13:26.062Z,99307.91
2018-12-21T17:15:53.668Z,99278.80
2018-12-21T17:18:21.336Z,99277.15
2018-12-21T17:20:48.939Z,99280.82
2018-12-21T17:23:16.517Z,99285.19
2018-12-21T17:25:44.115Z,99291.44
2018-12-21T17:28:11.696Z,99276.41
2018-12-21T17:30:39.295Z,99274.63
2018-12-21T17:33:06.872Z,99265.41
2018-12-21T17:35:34.471Z,99269.48
2018-12-21T17:38:02.053Z,99269.48
2018-12-21T17:40:29.660Z,99266.23
2018-12-21T17:42:57.242Z,99279.80
2018-12-21T17:45:24.841Z,99272.30
2018-12-21T17:47:52.418Z,99274.25
2018-12-21T17:50:20.025Z,99268.40
2018-12-21T17:52:47.603Z,99269.88
2018-12-21T17:55:15.214Z,99277.29
2018-12-21T17:57:42.798Z,99276.23
2018-12-21T18:00:13.438Z,99263.80
2018-12-21T18:02:41.901Z,99257.62
2018-12-21T18:05:09.482Z,99254.16
2018-12-21T18:07:37.083Z,99245.29
2018-12-21T18:10:08.520Z,99248.40
2018-12-21T18:12:36.128Z,99246.81
2018-12-21T18:15:04.975Z,99242.55
2018-12-21T18:17:32.582Z,99235.23
2018-12-21T18:20:00.190Z,99242.31
2018-12-21T18:22:27.848Z,99237.19
2018-12-21T18:24:57.398Z,99233.91
2018-12-21T18:27:25.253Z,99236.42
2018-12-21T18:29:52.834Z,99243.41
2018-12-21T18:32:20.595Z,99245.09
2018-12-21T18:34:48.175Z,99248.30
2018-12-21T18:37:15.777Z,99244.47
2018-12-21T18:39:43.363Z,99247.57
2018-12-21T18:42:10.973Z,99245.12
2018-12-21T18:44:38.556Z,99237.90
2018-12-21T18:47:06.162Z,99238.00
2018-12-21T18:49:33.744Z,99240.71
2018-12-21T18:52:01.356Z,99244.25
2018-12-21T18:54:28.948Z,99248.19
2018-12-21T18:56:56.556Z,99244.37
2018-12-21T18:59:24.140Z,99244.97
2018-12-21T19:01:51.723Z,99232.16
2018-12-21T19:04:19.323Z,99235.66
2018-12-21T19:06:46.904Z,99243.42
2018-12-21T19:09:14.517Z,99245.78
2018-12-21T19:11:42.103Z,99234.33
2018-12-21T19:14:09.733Z,99232.83
2018-12-21T19:16:37.319Z,99226.42
2018-12-21T19:19:05.689Z,99228.07
2018-12-21T19:21:33.448Z,99231.70
2018-12-21T19:24:01.067Z,99229.22
2018-12-21T19:26:28.656Z,99227.66
2018-12-21T19:28:56.266Z,99227.05
2018-12-21T19:31:23.882Z,99227.23
2018-12-21T19:33:51.513Z,99225.82
2018-12-21T19:39:15.552Z,99215.39
2018-12-21T19:41:49.642Z,99224.37
2018-12-21T19:44:20.688Z,99218.22
2018-12-21T19:46:51.318Z,99231.66
2018-12-21T19:49:18.922Z,99223.49
2018-12-21T19:51:46.508Z,99225.64
2018-12-21T19:54:20.381Z,99229.91
2018-12-21T19:57:04.163Z,99238.27
2018-12-21T19:59:31.864Z,99225.72
2018-12-21T20:02:05.807Z,99232.64
2018-12-21T20:04:39.305Z,99236.15
2018-12-21T20:07:06.889Z,99239.16
2018-12-21T20:09:40.816Z,99233.28
2018-12-21T20:12:16.467Z,99229.63
2018-12-21T20:14:50.716Z,99223.63
2018-12-21T20:17:18.302Z,99224.46
2018-12-21T20:19:47.559Z,99235.89
2018-12-21T20:22:20.842Z,99227.90
2018-12-21T20:24:51.671Z,99231.98
2018-12-21T20:27:22.270Z,99223.56
2018-12-21T20:29:53.315Z,99239.00
2018-12-21T20:32:22.240Z,99233.16
2018-12-21T20:35:00.563Z,99236.99
2018-12-21T20:37:31.628Z,99232.73
2018-12-21T20:40:06.996Z,99231.62
2018-12-21T20:42:34.590Z,99244.70
2018-12-21T20:45:08.698Z,99243.20
2018-12-21T20:47:39.944Z,99238.64
2018-12-21T20:50:13.224Z,99257.30
2018-12-21T20:52:43.769Z,99248.89
2018-12-21T20:55:14.805Z,99262.89
2018-12-21T20:57:46.998Z,99272.83
2018-12-21T21:00:17.924Z,99276.19
2018-12-21T21:02:51.854Z,99262.58
2018-12-21T21:05:23.045Z,99246.48
2018-12-21T21:07:54.214Z,99270.50
2018-12-21T21:10:28.183Z,99268.09
2018-12-21T21:12:59.206Z,99269.63
2018-12-21T21:15:30.419Z,99269.55
2018-12-21T21:18:04.208Z,99277.47
2018-12-21T21:20:35.583Z,99286.42
2018-12-21T21:23:06.243Z,99283.37
2018-12-21T21:25:38.168Z,99273.42
2018-12-21T21:28:09.543Z,99287.33
2018-12-21T21:30:40.795Z,99281.34
2018-12-21T21:33:12.397Z,99276.19
2018-12-21T21:35:45.811Z,99288.02
2018-12-21T21:38:16.876Z,99280.47
2018-12-21T21:40:51.507Z,99278.94
2018-12-21T21:43:22.434Z,99289.29
2018-12-21T21:45:53.367Z,99313.06
2018-12-21T21:48:27.022Z,99307.25
2018-12-21T21:50:58.572Z,99286.66
2018-12-21T21:53:32.135Z,99305.97
2018-12-21T21:56:03.475Z,99315.25
2018-12-21T21:58:34.514Z,99313.67
2018-12-21T22:01:03.754Z,99316.61
2018-12-21T22:03:37.227Z,99323.95
2018-12-21T22:06:11.346Z,99345.07
2018-12-21T22:08:42.313Z,99332.08
2018-12-21T22:11:15.887Z,99358.84
2018-12-21T22:13:49.778Z,99355.67
2018-12-21T22:16:23.749Z,99361.10
2018-12-21T22:18:52.940Z,99386.44
2018-12-21T22:21:23.760Z,99383.55
2018-12-21T22:23:57.560Z,99383.94
2018-12-21T22:26:31.048Z,99390.20
2018-12-21T22:28:58.671Z,99400.02
2018-12-21T22:31:27.708Z,99381.45
2018-12-21T22:34:01.783Z,99406.14
2018-12-21T22:36:39.172Z,99416.88
2018-12-21T22:39:13.167Z,99405.47
2018-12-21T22:41:43.790Z,99431.08
2018-12-21T22:44:11.479Z,99419.66
2018-12-21T22:46:39.154Z,99431.96
2018-12-21T22:49:06.755Z,99441.77
2018-12-21T22:51:34.339Z,99424.09
2018-12-21T22:54:01.938Z,99418.27
2018-12-21T22:56:29.515Z,99460.55
2018-12-21T22:58:57.114Z,99465.80
2018-12-21T23:01:28.312Z,99444.52
2018-12-21T23:03:55.920Z,99476.42
2018-12-21T23:06:23.499Z,99472.05
2018-12-21T23:08:51.100Z,99473.11
2018-12-21T23:11:18.685Z,99475.06
2018-12-21T23:13:46.298Z,99494.92
2018-12-21T23:16:13.886Z,99483.55
2018-12-21T23:18:41.499Z,99491.17
2018-12-21T23:21:09.079Z,99501.22
2018-12-21T23:23:36.683Z,99493.56
2018-12-21T23:26:04.259Z,99508.02
2018-12-21T23:28:31.947Z,99520.02
2018-12-21T23:30:59.535Z,99531.38
2018-12-21T23:33:27.139Z,99533.91
2018-12-21T23:35:54.724Z,99534.67
2018-12-21T23:38:22.323Z,99540.23
2018-12-21T23:40:49.902Z,99524.99
2018-12-21T23:43:17.503Z,99558.40
2018-12-21T23:45:45.109Z,99569.72
2018-12-21T23:48:12.695Z,99576.17
2018-12-21T23:50:40.294Z,99591.41
2018-12-21T23:53:07.875Z,99590.58
2018-12-21T23:55:35.477Z,99582.03
2018-12-21T23:58:03.062Z,99600.28
